Time;durP1;ratioP1;P1;durP2;ratioP2;P2;SDS_P1;SDS_P2;PMS_P1;PMS_P2;Temp;Humidity;BMP_temperature;BMP_pressure;BME280_temperature;BME280_humidity;BME280_pressure;Samples;Min_cycle;Max_cycle;Signal;HPM_P1;HPM_P2
2022/06/01 00:01:13;;;;;;;8.17;4.80;;;21.40;92.50;;;;;;5102431;27;20193;-72
2022/06/01 00:03:43;;;;;;;9.80;5.00;;;21.40;92.50;;;;;;5103328;28;20694;-72
2022/06/01 00:06:12;;;;;;;11.67;4.93;;;21.40;92.50;;;;;;5102091;28;20184;-72
2022/06/01 00:08:42;;;;;;;13.40;5.10;;;21.40;92.50;;;;;;5104475;28;20193;-73
2022/06/01 00:11:10;;;;;;;11.77;5.53;;;21.40;92.50;;;;;;5103484;28;20191;-72
2022/06/01 00:13:39;;;;;;;7.83;5.20;;;21.40;92.50;;;;;;5105213;28;20220;-72
2022/06/01 00:16:08;;;;;;;9.48;4.97;;;21.40;92.50;;;;;;5102763;28;20717;-72
2022/06/01 00:18:38;;;;;;;11.57;5.37;;;21.40;92.50;;;;;;5105435;28;20202;-72
2022/06/01 00:21:08;;;;;;;12.00;5.20;;;21.40;92.40;;;;;;5101499;27;20196;-73
2022/06/01 00:23:37;;;;;;;10.10;5.60;;;21.40;92.40;;;;;;5102813;28;20220;-72
2022/06/01 00:26:05;;;;;;;9.70;5.37;;;21.40;92.40;;;;;;5098276;28;20533;-73
2022/06/01 00:28:34;;;;;;;9.23;5.13;;;21.40;92.30;;;;;;5103553;27;20896;-72
2022/06/01 00:31:03;;;;;;;8.97;4.83;;;21.40;92.40;;;;;;5103492;28;20618;-73
2022/06/01 00:33:32;;;;;;;10.07;5.50;;;21.40;92.30;;;;;;5102522;27;20228;-73
2022/06/01 00:36:03;;;;;;;12.07;5.60;;;21.40;92.30;;;;;;5101131;28;20849;-72
2022/06/01 00:38:31;;;;;;;11.43;5.70;;;21.40;92.30;;;;;;5106243;28;20288;-72
2022/06/01 00:40:59;;;;;;;8.57;5.63;;;21.40;92.30;;;;;;5105315;28;20190;-72
2022/06/01 00:43:44;;;;;;;9.43;5.60;;;21.40;92.30;;;;;;5104381;28;20738;-72
2022/06/01 00:46:14;;;;;;;8.07;5.23;;;21.40;92.30;;;;;;5099401;28;20238;-72
2022/06/01 00:48:47;;;;;;;11.40;5.37;;;21.40;92.20;;;;;;5102214;28;20189;-72
2022/06/01 00:51:20;;;;;;;8.63;5.20;;;21.40;92.20;;;;;;5102617;27;20185;-72
2022/06/01 00:53:49;;;;;;;10.00;5.67;;;21.40;92.20;;;;;;5101734;28;20212;-73
2022/06/01 00:56:21;;;;;;;9.30;5.23;;;21.40;92.20;;;;;;5100453;28;20204;-72
2022/06/01 00:58:52;;;;;;;13.77;5.63;;;21.40;92.20;;;;;;5103708;27;20191;-72
2022/06/01 01:01:22;;;;;;;7.90;5.00;;;21.40;92.20;;;;;;5101090;28;20654;-73
2022/06/01 01:03:53;;;;;;;10.57;5.07;;;21.40;92.20;;;;;;5101051;28;20189;-72
2022/06/01 01:06:26;;;;;;;9.67;4.67;;;21.40;92.20;;;;;;5097656;28;20189;-73
2022/06/01 01:08:56;;;;;;;11.60;5.33;;;21.40;92.20;;;;;;5105396;28;20394;-73
2022/06/01 01:11:29;;;;;;;7.67;4.87;;;21.40;92.10;;;;;;5097338;27;20878;-73
2022/06/01 01:13:58;;;;;;;7.53;4.40;;;21.40;92.10;;;;;;5105628;28;20213;-73
2022/06/01 01:16:28;;;;;;;8.23;4.70;;;21.40;92.10;;;;;;5101732;28;20217;-73
2022/06/01 01:18:57;;;;;;;8.97;4.30;;;21.40;92.10;;;;;;5100538;28;20831;-72
2022/06/01 01:21:39;;;;;;;12.03;4.63;;;21.40;92.00;;;;;;5099229;28;20881;-72
2022/06/01 01:24:15;;;;;;;9.40;4.97;;;21.30;92.00;;;;;;5100940;28;20752;-72
2022/06/01 01:26:49;;;;;;;8.00;4.20;;;21.30;92.00;;;;;;5101082;28;20216;-73
2022/06/01 01:29:31;;;;;;;9.33;4.37;;;21.30;92.00;;;;;;5103625;28;20208;-72
2022/06/01 01:32:00;;;;;;;11.77;5.00;;;21.30;92.00;;;;;;5100652;28;20193;-72
2022/06/01 01:34:28;;;;;;;7.67;4.63;;;21.30;91.90;;;;;;5102367;28;20220;-73
2022/06/01 01:37:01;;;;;;;8.40;4.33;;;21.30;91.90;;;;;;5100886;28;20220;-73
2022/06/01 01:39:32;;;;;;;12.90;4.23;;;21.30;92.00;;;;;;5100808;28;20631;-73
2022/06/01 01:42:02;;;;;;;6.70;4.10;;;21.20;91.90;;;;;;5103755;28;20190;-72
2022/06/01 01:44:35;;;;;;;8.17;4.53;;;21.20;91.90;;;;;;5099297;27;20212;-72
2022/06/01 01:47:04;;;;;;;8.60;4.60;;;21.20;92.00;;;;;;5100130;27;20185;-73
2022/06/01 01:49:35;;;;;;;8.57;4.17;;;21.20;92.10;;;;;;5101649;28;20197;-72
2022/06/01 01:52:08;;;;;;;8.67;4.60;;;21.20;92.00;;;;;;5103612;28;20197;-73
2022/06/01 01:54:46;;;;;;;8.03;4.60;;;21.20;92.00;;;;;;5101255;28;20201;-72
2022/06/01 01:57:26;;;;;;;6.80;4.23;;;21.20;92.00;;;;;;5099189;28;20203;-72
2022/06/01 02:00:06;;;;;;;7.57;4.60;;;21.10;91.90;;;;;;5100201;28;20698;-72
2022/06/01 02:02:41;;;;;;;9.27;4.87;;;21.10;92.00;;;;;;5099052;28;20655;-73
2022/06/01 02:08:11;;;;;;;11.63;4.57;;;21.10;92.00;;;;;;5095197;28;20200;-72
2022/06/01 02:13:28;;;;;;;8.13;4.33;;;21.10;91.90;;;;;;5099391;28;20208;-72
2022/06/01 02:15:58;;;;;;;7.77;4.70;;;21.10;91.80;;;;;;5101062;28;20225;-72
2022/06/01 02:18:31;;;;;;;10.97;5.27;;;21.10;91.80;;;;;;5102099;28;20185;-72
2022/06/01 02:21:02;;;;;;;8.57;4.93;;;21.10;91.80;;;;;;5101942;28;20196;-72
2022/06/01 02:23:32;;;;;;;9.17;4.20;;;21.00;91.90;;;;;;5096971;28;20196;-73
2022/06/01 02:26:01;;;;;;;8.73;4.60;;;21.00;91.90;;;;;;5101592;28;20189;-72
2022/06/01 02:28:32;;;;;;;8.47;4.43;;;21.00;91.90;;;;;;5101853;28;20189;-72
2022/06/01 02:31:01;;;;;;;8.47;4.70;;;21.00;91.90;;;;;;5100334;28;20646;-72
2022/06/01 02:33:34;;;;;;;11.30;4.77;;;21.00;91.90;;;;;;5102849;28;20285;-72
2022/06/01 02:36:06;;;;;;;10.13;4.87;;;20.90;91.80;;;;;;5103101;28;20189;-73
2022/06/01 02:38:40;;;;;;;6.80;4.23;;;20.90;91.80;;;;;;5100830;28;20850;-72
2022/06/01 02:42:25;;;;;;;13.63;4.90;;;21.00;91.90;;;;;;5096666;28;20189;-72
2022/06/01 02:43:59;;;;;;;8.80;4.70;;;20.90;91.80;;;;;;5100878;28;20197;-73
2022/06/01 02:46:27;;;;;;;9.40;4.57;;;20.90;91.80;;;;;;5102851;28;20760;-72
2022/06/01 02:48:56;;;;;;;8.33;4.73;;;20.90;91.80;;;;;;5099948;28;20893;-73
2022/06/01 02:51:26;;;;;;;10.07;4.97;;;20.90;91.80;;;;;;5101433;28;20193;-73
2022/06/01 02:53:54;;;;;;;7.43;4.77;;;20.90;91.80;;;;;;5101026;28;20251;-72
2022/06/01 02:56:24;;;;;;;8.77;4.50;;;20.90;91.80;;;;;;5102423;28;20558;-72
2022/06/01 02:58:53;;;;;;;6.03;3.80;;;20.90;91.80;;;;;;5100976;28;20193;-73
2022/06/01 03:01:23;;;;;;;9.67;4.83;;;20.90;91.80;;;;;;5099198;28;20190;-72
2022/06/01 03:03:53;;;;;;;10.10;4.60;;;20.90;91.80;;;;;;5097206;28;20206;-72
2022/06/01 03:06:21;;;;;;;8.93;4.77;;;20.90;91.80;;;;;;5099184;28;20203;-72
2022/06/01 03:09:04;;;;;;;10.77;5.23;;;20.90;91.70;;;;;;5103652;28;20193;-72
2022/06/01 03:11:32;;;;;;;9.47;4.23;;;20.90;91.70;;;;;;5100104;28;20208;-72
2022/06/01 03:14:01;;;;;;;11.80;5.07;;;20.90;91.70;;;;;;5098463;28;20220;-72
2022/06/01 03:16:31;;;;;;;8.20;5.03;;;20.90;91.70;;;;;;5104902;28;20694;-73
2022/06/01 03:19:00;;;;;;;8.53;4.60;;;20.90;91.70;;;;;;5105397;28;20563;-72
2022/06/01 03:21:28;;;;;;;11.00;4.83;;;20.90;91.70;;;;;;5102407;27;20193;-73
2022/06/01 03:23:56;;;;;;;9.10;4.50;;;20.90;91.70;;;;;;5106474;27;20204;-73
2022/06/01 03:26:25;;;;;;;6.47;3.90;;;20.90;91.80;;;;;;5106798;28;20197;-72
2022/06/01 03:28:54;;;;;;;7.23;4.00;;;20.90;91.80;;;;;;5105215;27;20646;-72
2022/06/01 03:31:22;;;;;;;8.50;4.40;;;20.90;91.80;;;;;;5103977;28;20216;-72
2022/06/01 03:33:52;;;;;;;7.23;4.20;;;20.90;91.80;;;;;;5102970;28;20200;-72
2022/06/01 03:36:20;;;;;;;17.50;3.87;;;20.90;91.90;;;;;;5104925;28;20189;-72
2022/06/01 03:38:49;;;;;;;12.70;4.63;;;20.90;91.90;;;;;;5106876;28;20197;-72
2022/06/01 03:41:17;;;;;;;8.87;3.80;;;20.90;91.90;;;;;;5102080;28;20215;-73
2022/06/01 03:46:33;;;;;;;9.23;4.10;;;20.90;91.90;;;;;;5099676;27;20268;-73
2022/06/01 03:49:04;;;;;;;8.67;3.67;;;20.90;91.90;;;;;;5100623;28;20249;-72
2022/06/01 03:51:32;;;;;;;7.47;4.20;;;20.90;91.90;;;;;;5094923;27;20196;-72
2022/06/01 03:54:01;;;;;;;8.60;4.47;;;21.00;91.90;;;;;;5102836;27;20197;-72
2022/06/01 03:56:30;;;;;;;9.87;4.63;;;21.00;92.00;;;;;;5104872;27;20577;-72
2022/06/01 03:58:58;;;;;;;8.13;4.23;;;21.00;92.00;;;;;;5102661;28;20223;-72
2022/06/01 04:01:27;;;;;;;9.30;4.67;;;21.00;92.00;;;;;;5102246;28;20203;-72
2022/06/01 04:03:55;;;;;;;15.80;4.40;;;21.00;92.10;;;;;;5096908;28;20201;-72
2022/06/01 04:06:25;;;;;;;10.55;4.32;;;21.00;92.10;;;;;;5097918;28;20575;-72
2022/06/01 04:08:54;;;;;;;8.73;5.47;;;21.00;92.10;;;;;;5104255;28;20662;-75
2022/06/01 04:11:22;;;;;;;6.93;3.90;;;21.10;92.10;;;;;;5107529;28;20197;-72
2022/06/01 04:13:51;;;;;;;9.23;4.60;;;21.10;92.10;;;;;;5105043;27;20197;-72
2022/06/01 04:16:19;;;;;;;8.57;4.30;;;21.10;92.10;;;;;;5104883;28;20229;-74
2022/06/01 04:18:48;;;;;;;9.73;4.40;;;21.10;92.10;;;;;;5099321;27;20197;-72
2022/06/01 04:21:22;;;;;;;8.27;4.75;;;21.20;92.20;;;;;;5103687;27;20189;-73
2022/06/01 04:23:52;;;;;;;7.10;4.13;;;21.20;92.20;;;;;;5101691;27;20295;-73
2022/06/01 04:26:20;;;;;;;9.85;4.10;;;21.20;92.20;;;;;;5100076;28;20189;-72
2022/06/01 04:28:55;;;;;;;8.73;4.60;;;21.20;92.20;;;;;;5100717;28;20590;-72
2022/06/01 04:31:23;;;;;;;6.80;3.95;;;21.30;92.20;;;;;;5100825;28;20194;-73
2022/06/01 04:33:53;;;;;;;10.75;3.72;;;21.30;92.20;;;;;;5101505;27;20224;-73
2022/06/01 04:36:21;;;;;;;8.70;4.30;;;21.30;92.30;;;;;;5100318;27;20674;-73
2022/06/01 04:38:51;;;;;;;7.35;4.45;;;21.40;92.30;;;;;;5101044;28;20943;-73
2022/06/01 04:41:19;;;;;;;7.25;3.90;;;21.40;92.30;;;;;;5105769;27;20193;-73
2022/06/01 04:43:48;;;;;;;9.70;4.10;;;21.50;92.40;;;;;;5104773;28;20266;-73
2022/06/01 04:46:16;;;;;;;10.73;3.85;;;21.50;92.30;;;;;;5102351;28;20193;-73
2022/06/01 04:48:45;;;;;;;6.05;3.75;;;21.60;92.40;;;;;;5103180;28;20193;-73
2022/06/01 04:51:13;;;;;;;8.85;4.03;;;21.60;92.40;;;;;;5101538;28;20200;-73
2022/06/01 04:53:44;;;;;;;7.38;3.80;;;21.60;92.40;;;;;;5102933;28;20228;-73
2022/06/01 04:56:14;;;;;;;8.10;3.65;;;21.70;92.40;;;;;;5103996;28;20209;-74
2022/06/01 04:58:42;;;;;;;8.52;3.78;;;21.70;92.40;;;;;;5103742;28;20892;-75
2022/06/01 05:01:11;;;;;;;9.38;3.78;;;21.80;92.40;;;;;;5103582;28;20822;-74
2022/06/01 05:03:40;;;;;;;8.65;4.07;;;21.80;92.40;;;;;;5102635;28;20932;-73
2022/06/01 05:06:08;;;;;;;8.57;3.65;;;21.90;92.50;;;;;;5102403;28;20204;-74
2022/06/01 05:08:36;;;;;;;8.50;4.15;;;22.00;92.50;;;;;;5098659;27;20223;-74
2022/06/01 05:11:05;;;;;;;7.10;3.97;;;22.10;92.60;;;;;;5104142;28;20193;-74
2022/06/01 05:13:37;;;;;;;8.57;4.05;;;22.10;92.50;;;;;;5102182;28;20196;-74
2022/06/01 05:16:07;;;;;;;8.75;4.13;;;22.20;92.60;;;;;;5102645;27;20223;-75
2022/06/01 05:18:39;;;;;;;8.93;3.78;;;22.20;92.60;;;;;;5095006;28;20197;-74
2022/06/01 05:21:07;;;;;;;11.80;3.97;;;22.30;92.60;;;;;;5099080;28;20208;-75
2022/06/01 05:23:36;;;;;;;7.75;3.60;;;22.40;92.60;;;;;;5100713;27;20195;-74
2022/06/01 05:26:05;;;;;;;7.18;3.97;;;22.50;92.50;;;;;;5101939;28;20196;-74
2022/06/01 05:28:35;;;;;;;9.57;4.50;;;22.50;92.50;;;;;;5102937;28;20193;-75
2022/06/01 05:31:07;;;;;;;8.82;4.20;;;22.60;92.60;;;;;;5102886;28;20189;-75
2022/06/01 05:33:37;;;;;;;6.78;3.90;;;22.60;92.50;;;;;;5101621;27;20200;-74
2022/06/01 05:36:06;;;;;;;5.82;3.75;;;22.70;92.50;;;;;;5103423;28;20221;-74
2022/06/01 05:38:34;;;;;;;7.72;4.07;;;22.80;92.50;;;;;;5100227;28;20219;-75
2022/06/01 05:41:03;;;;;;;13.10;3.95;;;22.90;92.50;;;;;;5101680;28;20227;-74
2022/06/01 05:43:31;;;;;;;6.45;3.38;;;22.90;92.40;;;;;;5103680;28;20204;-75
2022/06/01 05:46:01;;;;;;;15.73;4.13;;;23.00;92.20;;;;;;5103568;28;20732;-75
2022/06/01 05:48:30;;;;;;;8.65;3.20;;;23.10;92.10;;;;;;5098972;28;20200;-75
2022/06/01 05:50:59;;;;;;;6.55;3.65;;;23.20;92.00;;;;;;5102088;27;20198;-78
2022/06/01 05:53:27;;;;;;;7.85;3.15;;;23.30;91.90;;;;;;5084982;28;20189;-75
2022/06/01 05:55:56;;;;;;;6.18;3.25;;;23.30;91.90;;;;;;5098206;28;20217;-75
2022/06/01 05:58:27;;;;;;;8.10;3.78;;;23.50;91.70;;;;;;5100038;28;20197;-75
2022/06/01 06:00:56;;;;;;;7.78;3.17;;;23.50;91.70;;;;;;5102718;28;20200;-75
2022/06/01 06:03:26;;;;;;;5.80;3.22;;;23.60;91.60;;;;;;5097177;28;20193;-75
2022/06/01 06:06:16;;;;;;;8.05;3.40;;;23.70;91.50;;;;;;5104371;28;20197;-75
2022/06/01 06:08:51;;;;;;;5.88;3.20;;;23.80;91.50;;;;;;5100906;28;20220;-75
2022/06/01 06:11:23;;;;;;;7.10;3.15;;;23.90;91.40;;;;;;5100593;28;20188;-75
2022/06/01 06:13:52;;;;;;;4.15;2.67;;;23.90;91.30;;;;;;5097518;28;20915;-75
2022/06/01 06:16:21;;;;;;;8.75;3.22;;;24.00;91.20;;;;;;5097010;28;20236;-75
2022/06/01 06:18:51;;;;;;;5.13;3.42;;;24.10;91.00;;;;;;5098219;28;20208;-75
2022/06/01 06:21:19;;;;;;;8.25;3.35;;;24.10;91.00;;;;;;5103155;28;20193;-75
2022/06/01 06:23:47;;;;;;;6.20;3.50;;;24.20;90.90;;;;;;5102330;28;20780;-75
2022/06/01 06:26:16;;;;;;;6.75;2.85;;;24.30;90.80;;;;;;5100220;28;20193;-75
2022/06/01 06:28:44;;;;;;;4.63;3.05;;;24.40;90.70;;;;;;5100791;28;20197;-75
2022/06/01 06:31:13;;;;;;;5.40;3.40;;;24.50;90.70;;;;;;5097131;28;20192;-75
2022/06/01 06:33:41;;;;;;;9.25;3.65;;;24.60;90.40;;;;;;5102388;28;20205;-74
2022/06/01 06:36:14;;;;;;;8.23;3.83;;;24.60;90.20;;;;;;5095962;28;20216;-75
2022/06/01 06:38:43;;;;;;;6.13;3.90;;;24.70;90.10;;;;;;5097603;28;20658;-75
2022/06/01 06:41:12;;;;;;;9.55;3.55;;;24.80;90.00;;;;;;5096642;28;20452;-75
2022/06/01 06:43:41;;;;;;;5.97;3.20;;;24.90;90.00;;;;;;5099402;28;20202;-76
2022/06/01 06:46:12;;;;;;;7.47;3.47;;;25.00;89.40;;;;;;5099394;28;20193;-75
2022/06/01 06:48:42;;;;;;;8.18;3.40;;;25.00;88.80;;;;;;5100046;28;20695;-74
2022/06/01 06:51:12;;;;;;;5.15;3.60;;;25.10;88.40;;;;;;5105536;28;20189;-75
2022/06/01 06:53:40;;;;;;;6.93;3.63;;;25.10;88.00;;;;;;5099585;28;20201;-74
2022/06/01 06:56:09;;;;;;;10.93;4.05;;;25.20;87.50;;;;;;5093267;28;20830;-74
2022/06/01 06:58:37;;;;;;;9.40;3.95;;;25.20;86.40;;;;;;5106747;28;20216;-75
2022/06/01 07:01:06;;;;;;;10.00;3.58;;;25.30;86.00;;;;;;5101839;27;20196;-74
2022/06/01 07:03:35;;;;;;;10.38;4.00;;;25.30;85.90;;;;;;5103510;27;20517;-74
2022/06/01 07:06:11;;;;;;;7.07;3.60;;;25.40;86.10;;;;;;5102641;27;20258;-75
2022/06/01 07:08:43;;;;;;;6.38;3.30;;;25.40;86.40;;;;;;5106145;28;20195;-74
2022/06/01 07:11:13;;;;;;;6.35;3.53;;;25.50;86.60;;;;;;5096667;27;20905;-75
2022/06/01 07:13:42;;;;;;;9.25;3.72;;;25.50;85.80;;;;;;5106839;28;20208;-74
2022/06/01 07:16:12;;;;;;;9.85;4.10;;;25.60;85.90;;;;;;5104877;27;20228;-74
2022/06/01 07:18:43;;;;;;;6.20;3.55;;;25.60;85.80;;;;;;5105826;28;20197;-74
2022/06/01 07:21:13;;;;;;;5.80;3.40;;;25.70;85.80;;;;;;5100433;28;20833;-76
2022/06/01 07:23:43;;;;;;;10.02;3.80;;;25.70;86.10;;;;;;5094752;27;20544;-74
2022/06/01 07:26:15;;;;;;;6.35;3.50;;;25.80;85.50;;;;;;5107653;28;20212;-74
2022/06/01 07:28:43;;;;;;;5.80;3.20;;;25.80;85.50;;;;;;5102403;27;20195;-74
2022/06/01 07:31:13;;;;;;;8.10;3.38;;;25.90;85.50;;;;;;5105421;28;20189;-74
2022/06/01 07:33:43;;;;;;;5.63;3.35;;;25.90;85.20;;;;;;5101610;28;20185;-73
2022/06/01 07:36:13;;;;;;;10.52;3.90;;;26.00;85.00;;;;;;5093991;28;20185;-74
2022/06/01 07:44:20;;;;;;;10.02;3.60;;;26.10;84.50;;;;;;5099450;28;20181;-73
2022/06/01 07:46:49;;;;;;;6.28;2.88;;;26.20;84.50;;;;;;5105939;28;20189;-73
2022/06/01 07:49:19;;;;;;;6.50;3.33;;;26.30;84.30;;;;;;5106962;28;20197;-74
2022/06/01 07:52:09;;;;;;;7.50;3.20;;;26.30;83.80;;;;;;5100669;28;20200;-74
2022/06/01 07:54:40;;;;;;;7.35;3.00;;;26.30;83.70;;;;;;5100680;27;20193;-73
2022/06/01 07:57:09;;;;;;;8.52;3.80;;;26.40;83.20;;;;;;5103244;28;20209;-75
2022/06/01 07:59:37;;;;;;;10.48;3.67;;;26.40;83.20;;;;;;5103295;28;20771;-75
2022/06/01 08:02:09;;;;;;;5.40;3.03;;;26.40;82.80;;;;;;5101436;28;20345;-75
2022/06/01 08:04:39;;;;;;;8.50;3.60;;;26.50;82.50;;;;;;5105893;28;20196;-74
2022/06/01 08:07:09;;;;;;;6.72;3.55;;;26.50;82.20;;;;;;5104473;28;20840;-74
2022/06/01 08:09:39;;;;;;;10.02;3.42;;;26.60;82.10;;;;;;5103847;28;20279;-74
2022/06/01 08:14:54;;;;;;;7.35;3.25;;;26.70;82.20;;;;;;5104415;28;20220;-74
2022/06/01 08:17:23;;;;;;;6.93;3.10;;;26.60;81.70;;;;;;5105354;28;20231;-74
2022/06/01 08:19:51;;;;;;;7.68;3.38;;;26.70;81.70;;;;;;5104660;28;20193;-74
2022/06/01 08:22:19;;;;;;;7.22;3.58;;;26.70;80.60;;;;;;5100462;28;20189;-73
2022/06/01 08:24:49;;;;;;;7.80;3.50;;;26.80;80.80;;;;;;5104254;28;20284;-74
2022/06/01 08:27:18;;;;;;;8.07;3.50;;;26.80;80.70;;;;;;5091286;28;20197;-74
2022/06/01 08:29:47;;;;;;;12.82;4.13;;;26.80;80.50;;;;;;5104803;27;20204;-74
2022/06/01 08:32:15;;;;;;;9.10;3.63;;;26.80;79.70;;;;;;5102734;28;20232;-74
2022/06/01 08:34:43;;;;;;;8.27;3.00;;;26.90;80.10;;;;;;5104567;28;20205;-74
2022/06/01 08:37:11;;;;;;;6.90;3.40;;;26.90;80.20;;;;;;5101525;28;20239;-74
2022/06/01 08:39:40;;;;;;;7.45;3.95;;;27.00;79.80;;;;;;5103414;28;20189;-73
2022/06/01 08:42:14;;;;;;;5.32;3.00;;;27.00;79.50;;;;;;5100379;28;20189;-74
2022/06/01 08:44:45;;;;;;;4.47;2.50;;;27.10;79.70;;;;;;5102135;28;20189;-74
2022/06/01 08:47:21;;;;;;;7.63;3.10;;;27.20;79.80;;;;;;5104574;28;20658;-74
2022/06/01 08:49:49;;;;;;;6.72;3.00;;;27.20;79.70;;;;;;5103418;28;20197;-74
2022/06/01 08:52:19;;;;;;;7.28;2.90;;;27.30;79.50;;;;;;5102646;28;20284;-74
2022/06/01 08:54:47;;;;;;;7.03;3.22;;;27.30;79.30;;;;;;5105397;28;20252;-74
2022/06/01 08:57:26;;;;;;;8.50;3.38;;;27.40;79.00;;;;;;5104115;28;20738;-74
2022/06/01 09:00:02;;;;;;;5.88;2.80;;;27.50;78.90;;;;;;5103707;28;20197;-75
2022/06/01 09:02:41;;;;;;;4.45;2.75;;;27.50;78.60;;;;;;5105027;28;20208;-73
2022/06/01 09:05:15;;;;;;;5.13;2.80;;;27.60;78.40;;;;;;5101284;28;20207;-74
2022/06/01 09:07:49;;;;;;;5.95;3.10;;;27.60;78.20;;;;;;5103968;28;20705;-75
2022/06/01 09:10:29;;;;;;;9.75;3.40;;;27.70;78.00;;;;;;5103387;28;20197;-74
2022/06/01 09:13:02;;;;;;;11.68;4.30;;;27.80;77.70;;;;;;5103772;28;20541;-74
2022/06/01 09:15:47;;;;;;;8.13;3.72;;;27.80;77.50;;;;;;5101626;27;20233;-74
2022/06/01 09:18:19;;;;;;;7.43;3.30;;;27.90;76.80;;;;;;5102914;28;20248;-76
2022/06/01 09:23:33;;;;;;;5.47;3.25;;;28.00;76.40;;;;;;5099648;28;20184;-75
2022/06/01 09:26:03;;;;;;;5.60;3.50;;;28.00;76.10;;;;;;5103602;28;20667;-75
2022/06/01 09:28:39;;;;;;;10.63;3.25;;;28.10;75.30;;;;;;5104234;28;20203;-74
2022/06/01 09:31:21;;;;;;;11.52;3.25;;;28.10;75.10;;;;;;5103965;28;20195;-74
2022/06/01 09:33:50;;;;;;;6.72;3.22;;;28.10;75.00;;;;;;5099788;28;20193;-74
2022/06/01 09:36:28;;;;;;;6.82;3.15;;;28.20;75.30;;;;;;5104323;27;20204;-74
2022/06/01 09:38:58;;;;;;;5.78;3.10;;;28.30;75.40;;;;;;5102284;28;20201;-75
2022/06/01 09:41:31;;;;;;;8.98;3.60;;;28.30;75.30;;;;;;5103101;28;20188;-73
2022/06/01 09:44:07;;;;;;;8.40;3.05;;;28.30;74.10;;;;;;5090282;28;20718;-74
2022/06/01 09:46:37;;;;;;;10.73;4.13;;;28.40;74.30;;;;;;5101389;28;20207;-73
2022/06/01 09:49:10;;;;;;;5.80;3.75;;;28.40;74.30;;;;;;5102596;28;20284;-74
2022/06/01 09:51:41;;;;;;;5.95;3.42;;;28.50;74.50;;;;;;5103276;28;20208;-73
2022/06/01 09:54:12;;;;;;;6.90;3.67;;;28.50;74.20;;;;;;5101907;27;20219;-73
2022/06/01 09:56:46;;;;;;;6.43;3.45;;;28.50;74.40;;;;;;5101114;28;20196;-75
2022/06/01 10:08:13;;;;;;;8.93;3.72;;;28.60;73.60;;;;;;5058831;28;20187;-74
2022/06/01 10:10:58;;;;;;;6.25;3.40;;;28.60;72.90;;;;;;5074752;28;20248;-73
2022/06/01 10:13:33;;;;;;;6.75;3.47;;;28.60;73.90;;;;;;5102016;28;20682;-74
2022/06/01 10:16:10;;;;;;;7.22;4.18;;;28.50;72.80;;;;;;5103380;28;20239;-75
2022/06/01 10:18:40;;;;;;;9.68;3.25;;;28.50;72.80;;;;;;5103141;28;20209;-75
2022/06/01 10:21:11;;;;;;;8.18;3.90;;;28.50;72.70;;;;;;5103179;28;20201;-75
2022/06/01 10:23:44;;;;;;;4.70;2.70;;;28.50;73.00;;;;;;5101282;28;20196;-75
2022/06/01 10:26:20;;;;;;;6.78;3.17;;;28.60;72.90;;;;;;5102014;28;20713;-76
2022/06/01 10:28:54;;;;;;;5.88;2.90;;;28.60;72.70;;;;;;5099172;28;20196;-74
2022/06/01 10:31:29;;;;;;;6.32;3.55;;;28.70;72.30;;;;;;5103257;28;20197;-76
2022/06/01 10:34:02;;;;;;;7.97;3.17;;;28.80;71.90;;;;;;5100436;28;20184;-74
2022/06/01 10:36:41;;;;;;;6.57;2.67;;;28.80;73.10;;;;;;5102867;28;20197;-75
2022/06/01 10:39:17;;;;;;;5.78;2.97;;;28.80;71.80;;;;;;5091199;28;20219;-74
2022/06/01 10:41:51;;;;;;;5.32;3.03;;;28.90;71.40;;;;;;5103453;28;20197;-74
2022/06/01 10:44:24;;;;;;;5.43;2.53;;;28.90;71.10;;;;;;5101114;28;20643;-72
2022/06/01 10:47:00;;;;;;;4.43;2.85;;;29.00;70.70;;;;;;5103294;28;20192;-74
2022/06/01 10:49:46;;;;;;;6.20;2.55;;;29.00;70.50;;;;;;5102515;28;20192;-73
2022/06/01 10:52:25;;;;;;;6.43;3.05;;;29.10;70.80;;;;;;5100194;28;20212;-74
2022/06/01 10:55:09;;;;;;;5.85;2.60;;;29.20;70.90;;;;;;5089879;28;20673;-73
2022/06/01 10:57:39;;;;;;;7.60;2.90;;;29.30;70.30;;;;;;5102037;28;20193;-73
2022/06/01 11:00:12;;;;;;;4.40;2.97;;;29.30;70.50;;;;;;5102283;28;20189;-73
2022/06/01 11:03:09;;;;;;;7.68;3.22;;;29.40;69.60;;;;;;5088767;28;20220;-74
2022/06/01 11:05:45;;;;;;;4.68;2.85;;;29.40;69.70;;;;;;5092665;28;20197;-73
2022/06/01 11:08:25;;;;;;;5.95;2.72;;;29.50;69.30;;;;;;5098610;28;20193;-75
2022/06/01 11:11:03;;;;;;;5.90;2.90;;;29.50;69.10;;;;;;5101533;28;20193;-73
2022/06/01 11:13:54;;;;;;;7.75;3.03;;;29.50;68.80;;;;;;5101358;28;20243;-74
2022/06/01 11:16:35;;;;;;;8.82;3.15;;;29.60;68.60;;;;;;5101359;28;20225;-72
2022/06/01 11:19:18;;;;;;;4.72;2.50;;;29.60;67.80;;;;;;5102246;28;20303;-72
2022/06/01 11:21:57;;;;;;;9.90;3.53;;;29.70;66.60;;;;;;5102901;28;20197;-72
2022/06/01 11:24:45;;;;;;;7.03;3.42;;;29.70;66.90;;;;;;5095117;28;20946;-72
2022/06/01 11:27:29;;;;;;;5.80;2.13;;;29.80;67.40;;;;;;5102117;28;20201;-75
2022/06/01 11:30:10;;;;;;;6.55;2.70;;;29.90;67.30;;;;;;5099399;28;20193;-74
2022/06/01 11:32:44;;;;;;;6.07;3.28;;;29.90;67.10;;;;;;5101677;28;20677;-73
2022/06/01 11:35:22;;;;;;;8.98;3.00;;;30.00;65.10;;;;;;5102159;28;20189;-75
2022/06/01 11:37:56;;;;;;;4.80;2.70;;;30.00;64.80;;;;;;5102612;28;20189;-76
2022/06/01 11:40:45;;;;;;;5.30;2.90;;;30.10;64.90;;;;;;5099660;28;20188;-72
2022/06/01 11:43:23;;;;;;;4.35;2.90;;;30.10;64.80;;;;;;5099347;28;20204;-72
2022/06/01 11:45:55;;;;;;;6.20;3.00;;;30.10;65.30;;;;;;5104212;28;20184;-73
2022/06/01 11:48:29;;;;;;;4.30;2.70;;;30.10;65.50;;;;;;5100748;28;20213;-73
2022/06/01 11:51:12;;;;;;;8.25;3.15;;;30.20;65.00;;;;;;5099230;27;20182;-73
2022/06/01 11:53:59;;;;;;;6.47;3.33;;;30.30;64.20;;;;;;5101939;28;20193;-73
2022/06/01 11:56:37;;;;;;;5.75;3.10;;;30.40;64.00;;;;;;5100058;27;20181;-74
2022/06/01 11:59:15;;;;;;;4.78;2.90;;;30.50;63.60;;;;;;5102102;28;20211;-75
2022/06/01 12:01:52;;;;;;;4.90;2.40;;;30.50;63.40;;;;;;5101513;28;20208;-75
2022/06/01 12:04:29;;;;;;;6.65;3.17;;;30.60;63.30;;;;;;5099755;28;20185;-74
2022/06/01 12:07:05;;;;;;;8.73;2.75;;;30.60;63.10;;;;;;5102725;27;20184;-72
2022/06/01 12:09:45;;;;;;;5.65;2.55;;;30.70;63.40;;;;;;5109392;27;20562;-73
2022/06/01 12:12:44;;;;;;;5.07;2.72;;;30.70;60.70;;;;;;5103843;27;20188;-73
2022/06/01 12:15:20;;;;;;;8.48;2.70;;;30.70;61.10;;;;;;5101701;28;20219;-73
2022/06/01 12:18:08;;;;;;;8.02;2.33;;;30.80;62.30;;;;;;5100667;28;20184;-73
2022/06/01 12:20:47;;;;;;;4.45;2.22;;;30.90;61.90;;;;;;5104527;28;20232;-72
2022/06/01 12:29:37;;;;;;;3.63;2.30;;;31.20;60.60;;;;;;5101412;28;20185;-74
2022/06/01 12:32:14;;;;;;;6.22;2.38;;;31.20;59.40;;;;;;5100750;28;20185;-74
2022/06/01 12:35:04;;;;;;;5.20;2.05;;;31.20;59.40;;;;;;5104995;28;20599;-73
2022/06/01 12:37:39;;;;;;;5.57;2.30;;;31.30;60.10;;;;;;5103501;28;20189;-73
2022/06/01 12:40:15;;;;;;;5.15;2.08;;;31.40;59.90;;;;;;5103555;28;20224;-73
2022/06/01 12:42:47;;;;;;;6.47;2.17;;;31.60;60.20;;;;;;5103693;28;20196;-73
2022/06/01 12:45:19;;;;;;;5.90;2.17;;;31.80;60.80;;;;;;5101033;28;20204;-72
2022/06/01 12:47:55;;;;;;;8.55;1.98;;;32.00;60.90;;;;;;5100196;28;20207;-72
2022/06/01 12:50:27;;;;;;;7.38;2.38;;;32.20;60.40;;;;;;5103788;28;20185;-73
2022/06/01 12:53:11;;;;;;;3.45;1.95;;;32.40;59.30;;;;;;5101798;28;20212;-74
2022/06/01 12:55:41;;;;;;;3.88;2.10;;;32.40;58.70;;;;;;5104189;28;20185;-75
2022/06/01 12:58:16;;;;;;;4.15;2.10;;;32.40;58.40;;;;;;5101718;27;20191;-74
2022/06/01 13:00:48;;;;;;;4.40;2.38;;;32.40;58.50;;;;;;5100445;28;20775;-75
2022/06/01 13:03:17;;;;;;;4.25;2.00;;;32.40;57.80;;;;;;5099130;27;20196;-77
2022/06/01 13:05:49;;;;;;;5.07;2.08;;;32.50;58.20;;;;;;5100709;28;20200;-75
2022/06/01 13:08:22;;;;;;;7.88;2.58;;;32.70;56.90;;;;;;5100279;28;20200;-72
2022/06/01 13:11:11;;;;;;;3.67;1.85;;;32.90;56.80;;;;;;5105592;28;20571;-77
2022/06/01 13:13:43;;;;;;;6.47;2.20;;;33.10;56.30;;;;;;5105745;28;20204;-73
2022/06/01 13:16:12;;;;;;;6.45;2.10;;;33.30;55.80;;;;;;5100687;28;20753;-74
2022/06/01 13:18:43;;;;;;;5.53;2.05;;;33.40;55.80;;;;;;5095945;28;20200;-75
2022/06/01 13:21:17;;;;;;;3.03;1.83;;;33.70;55.60;;;;;;5100694;28;20205;-74
2022/06/01 13:23:54;;;;;;;3.05;1.92;;;34.00;56.10;;;;;;5100614;28;20182;-77
2022/06/01 13:26:35;;;;;;;5.00;2.40;;;34.30;55.70;;;;;;5095769;28;20633;-78
2022/06/01 13:29:13;;;;;;;4.28;2.10;;;34.50;54.50;;;;;;5102650;28;20189;-76
2022/06/01 13:31:43;;;;;;;3.50;2.10;;;34.50;54.40;;;;;;5104084;28;20726;-73
2022/06/01 13:34:22;;;;;;;4.50;2.10;;;34.50;54.40;;;;;;5104822;28;20865;-76
2022/06/01 13:36:51;;;;;;;3.15;1.73;;;34.50;53.70;;;;;;5099465;28;20189;-77
2022/06/01 13:39:30;;;;;;;5.43;2.42;;;34.40;53.50;;;;;;5101394;28;20231;-77
2022/06/01 13:42:03;;;;;;;5.72;2.10;;;34.30;53.40;;;;;;5091778;28;20196;-77
2022/06/01 13:44:46;;;;;;;6.68;2.05;;;34.20;53.60;;;;;;5104856;28;20224;-75
2022/06/01 13:47:21;;;;;;;3.60;2.15;;;34.00;52.70;;;;;;5103698;28;20189;-76